sensor_id;sensor_type;location;lat;lon;timestamp;temperature;humidity
65374;SHT31;52070;53.760;9.678;2022-12-10T00:02:15;-0.29;92.04
65374;SHT31;52070;53.760;9.678;2022-12-10T00:04:42;-0.30;91.98
65374;SHT31;52070;53.760;9.678;2022-12-10T00:07:09;-0.29;91.93
65374;SHT31;52070;53.760;9.678;2022-12-10T00:09:36;-0.29;91.80
65374;SHT31;52070;53.760;9.678;2022-12-10T00:12:05;-0.30;91.80
65374;SHT31;52070;53.760;9.678;2022-12-10T00:14:32;-0.30;91.84
65374;SHT31;52070;53.760;9.678;2022-12-10T00:16:59;-0.27;91.97
65374;SHT31;52070;53.760;9.678;2022-12-10T00:19:26;-0.27;91.98
65374;SHT31;52070;53.760;9.678;2022-12-10T00:21:53;-0.26;92.05
65374;SHT31;52070;53.760;9.678;2022-12-10T00:24:20;-0.26;92.01
65374;SHT31;52070;53.760;9.678;2022-12-10T00:26:47;-0.15;91.84
65374;SHT31;52070;53.760;9.678;2022-12-10T00:29:15;-0.16;91.65
65374;SHT31;52070;53.760;9.678;2022-12-10T00:31:42;-0.19;91.63
65374;SHT31;52070;53.760;9.678;2022-12-10T00:34:10;-0.17;91.70
65374;SHT31;52070;53.760;9.678;2022-12-10T00:36:38;-0.17;91.69
65374;SHT31;52070;53.760;9.678;2022-12-10T00:39:06;-0.17;91.66
65374;SHT31;52070;53.760;9.678;2022-12-10T00:41:33;-0.19;91.60
65374;SHT31;52070;53.760;9.678;2022-12-10T00:44:00;-0.13;91.63
65374;SHT31;52070;53.760;9.678;2022-12-10T00:46:29;-0.19;91.54
65374;SHT31;52070;53.760;9.678;2022-12-10T00:48:57;-0.19;91.32
65374;SHT31;52070;53.760;9.678;2022-12-10T00:51:26;-0.17;91.24
65374;SHT31;52070;53.760;9.678;2022-12-10T00:53:54;-0.19;91.05
65374;SHT31;52070;53.760;9.678;2022-12-10T00:56:23;-0.17;90.98
65374;SHT31;52070;53.760;9.678;2022-12-10T00:58:51;-0.16;90.99
65374;SHT31;52070;53.760;9.678;2022-12-10T01:01:20;-0.19;91.09
65374;SHT31;52070;53.760;9.678;2022-12-10T01:03:51;-0.20;91.04
65374;SHT31;52070;53.760;9.678;2022-12-10T01:06:21;-0.23;90.70
65374;SHT31;52070;53.760;9.678;2022-12-10T01:08:49;-0.16;90.59
65374;SHT31;52070;53.760;9.678;2022-12-10T01:11:19;-0.10;90.50
65374;SHT31;52070;53.760;9.678;2022-12-10T01:13:47;-0.10;90.48
65374;SHT31;52070;53.760;9.678;2022-12-10T01:16:17;-0.06;90.48
65374;SHT31;52070;53.760;9.678;2022-12-10T01:18:44;-0.09;89.98
65374;SHT31;52070;53.760;9.678;2022-12-10T01:21:15;-0.13;89.94
65374;SHT31;52070;53.760;9.678;2022-12-10T01:23:43;-0.13;89.66
65374;SHT31;52070;53.760;9.678;2022-12-10T01:26:13;-0.10;89.35
65374;SHT31;52070;53.760;9.678;2022-12-10T01:28:41;-0.10;89.29
65374;SHT31;52070;53.760;9.678;2022-12-10T01:31:12;-0.05;89.25
65374;SHT31;52070;53.760;9.678;2022-12-10T01:33:40;0.02;89.24
65374;SHT31;52070;53.760;9.678;2022-12-10T01:36:08;0.05;89.02
65374;SHT31;52070;53.760;9.678;2022-12-10T01:38:36;0.04;88.65
65374;SHT31;52070;53.760;9.678;2022-12-10T01:41:05;-0.09;88.45
65374;SHT31;52070;53.760;9.678;2022-12-10T01:43:49;-0.13;88.54
65374;SHT31;52070;53.760;9.678;2022-12-10T01:46:17;-0.07;88.85
65374;SHT31;52070;53.760;9.678;2022-12-10T01:48:44;-0.07;89.08
65374;SHT31;52070;53.760;9.678;2022-12-10T01:51:13;0.05;88.87
65374;SHT31;52070;53.760;9.678;2022-12-10T01:53:42;0.01;88.68
65374;SHT31;52070;53.760;9.678;2022-12-10T01:56:09;0.04;88.53
65374;SHT31;52070;53.760;9.678;2022-12-10T01:58:37;0.04;88.24
65374;SHT31;52070;53.760;9.678;2022-12-10T02:01:07;0.07;88.31
65374;SHT31;52070;53.760;9.678;2022-12-10T02:03:45;0.01;88.12
65374;SHT31;52070;53.760;9.678;2022-12-10T02:06:28;-0.10;87.84
65374;SHT31;52070;53.760;9.678;2022-12-10T02:09:04;-0.09;87.89
65374;SHT31;52070;53.760;9.678;2022-12-10T02:11:40;-0.10;87.98
65374;SHT31;52070;53.760;9.678;2022-12-10T02:14:12;-0.12;88.21
65374;SHT31;52070;53.760;9.678;2022-12-10T02:16:43;-0.12;88.58
65374;SHT31;52070;53.760;9.678;2022-12-10T02:19:17;-0.15;88.64
65374;SHT31;52070;53.760;9.678;2022-12-10T02:21:47;-0.15;88.84
65374;SHT31;52070;53.760;9.678;2022-12-10T02:24:22;-0.07;88.95
65374;SHT31;52070;53.760;9.678;2022-12-10T02:26:56;0.01;88.72
65374;SHT31;52070;53.760;9.678;2022-12-10T02:29:27;0.04;88.23
65374;SHT31;52070;53.760;9.678;2022-12-10T02:31:58;-0.01;87.89
65374;SHT31;52070;53.760;9.678;2022-12-10T02:34:29;0.01;87.78
65374;SHT31;52070;53.760;9.678;2022-12-10T02:37:00;0.05;87.70
65374;SHT31;52070;53.760;9.678;2022-12-10T02:39:31;0.11;87.38
65374;SHT31;52070;53.760;9.678;2022-12-10T02:42:02;0.14;87.11
65374;SHT31;52070;53.760;9.678;2022-12-10T02:44:33;0.12;87.27
65374;SHT31;52070;53.760;9.678;2022-12-10T02:47:03;0.12;87.57
65374;SHT31;52070;53.760;9.678;2022-12-10T02:49:30;0.15;86.75
65374;SHT31;52070;53.760;9.678;2022-12-10T02:51:57;0.07;86.76
65374;SHT31;52070;53.760;9.678;2022-12-10T02:54:38;-0.06;86.43
65374;SHT31;52070;53.760;9.678;2022-12-10T02:57:22;-0.16;85.98
65374;SHT31;52070;53.760;9.678;2022-12-10T03:00:09;-0.20;86.06
65374;SHT31;52070;53.760;9.678;2022-12-10T03:02:46;-0.22;86.54
65374;SHT31;52070;53.760;9.678;2022-12-10T03:05:18;-0.22;86.81
65374;SHT31;52070;53.760;9.678;2022-12-10T03:07:50;-0.17;87.08
65374;SHT31;52070;53.760;9.678;2022-12-10T03:10:24;-0.16;87.44
65374;SHT31;52070;53.760;9.678;2022-12-10T03:12:56;-0.13;87.61
65374;SHT31;52070;53.760;9.678;2022-12-10T03:15:26;-0.15;87.68
65374;SHT31;52070;53.760;9.678;2022-12-10T03:17:54;-0.12;87.71
65374;SHT31;52070;53.760;9.678;2022-12-10T03:20:23;-0.10;87.90
65374;SHT31;52070;53.760;9.678;2022-12-10T03:22:51;-0.07;87.95
65374;SHT31;52070;53.760;9.678;2022-12-10T03:25:21;-0.06;87.82
65374;SHT31;52070;53.760;9.678;2022-12-10T03:27:51;-0.02;87.75
65374;SHT31;52070;53.760;9.678;2022-12-10T03:30:20;-0.03;87.91
65374;SHT31;52070;53.760;9.678;2022-12-10T03:32:49;0.02;87.84
65374;SHT31;52070;53.760;9.678;2022-12-10T03:35:17;-0.02;87.68
65374;SHT31;52070;53.760;9.678;2022-12-10T03:37:45;-0.07;87.50
65374;SHT31;52070;53.760;9.678;2022-12-10T03:40:15;-0.10;87.70
65374;SHT31;52070;53.760;9.678;2022-12-10T03:42:44;-0.12;87.79
65374;SHT31;52070;53.760;9.678;2022-12-10T03:45:11;-0.06;88.11
65374;SHT31;52070;53.760;9.678;2022-12-10T03:47:38;-0.12;87.57
65374;SHT31;52070;53.760;9.678;2022-12-10T03:50:07;-0.10;87.24
65374;SHT31;52070;53.760;9.678;2022-12-10T03:52:34;-0.15;85.86
65374;SHT31;52070;53.760;9.678;2022-12-10T03:55:02;-0.13;85.88
65374;SHT31;52070;53.760;9.678;2022-12-10T03:57:29;-0.06;85.74
65374;SHT31;52070;53.760;9.678;2022-12-10T03:59:56;-0.05;85.80
65374;SHT31;52070;53.760;9.678;2022-12-10T04:02:23;-0.07;85.86
65374;SHT31;52070;53.760;9.678;2022-12-10T04:04:50;-0.09;86.13
65374;SHT31;52070;53.760;9.678;2022-12-10T04:07:18;-0.12;86.44
65374;SHT31;52070;53.760;9.678;2022-12-10T04:09:45;-0.13;86.48
65374;SHT31;52070;53.760;9.678;2022-12-10T04:12:12;-0.15;86.71
65374;SHT31;52070;53.760;9.678;2022-12-10T04:14:39;-0.13;86.97
65374;SHT31;52070;53.760;9.678;2022-12-10T04:17:23;-0.12;87.25
65374;SHT31;52070;53.760;9.678;2022-12-10T04:19:50;-0.13;87.63
65374;SHT31;52070;53.760;9.678;2022-12-10T04:22:19;-0.15;87.78
65374;SHT31;52070;53.760;9.678;2022-12-10T04:25:04;-0.09;87.63
65374;SHT31;52070;53.760;9.678;2022-12-10T04:27:49;-0.07;86.21
65374;SHT31;52070;53.760;9.678;2022-12-10T04:30:16;-0.09;86.36
65374;SHT31;52070;53.760;9.678;2022-12-10T04:32:43;-0.06;86.54
65374;SHT31;52070;53.760;9.678;2022-12-10T04:35:10;-0.09;86.68
65374;SHT31;52070;53.760;9.678;2022-12-10T04:37:38;-0.07;86.46
65374;SHT31;52070;53.760;9.678;2022-12-10T04:40:06;-0.02;85.29
65374;SHT31;52070;53.760;9.678;2022-12-10T04:42:33;-0.03;85.24
65374;SHT31;52070;53.760;9.678;2022-12-10T04:45:00;-0.06;85.53
65374;SHT31;52070;53.760;9.678;2022-12-10T04:47:27;0.05;84.91
65374;SHT31;52070;53.760;9.678;2022-12-10T04:49:54;0.11;84.33
65374;SHT31;52070;53.760;9.678;2022-12-10T04:52:21;0.01;84.71
65374;SHT31;52070;53.760;9.678;2022-12-10T04:54:49;-0.05;84.17
65374;SHT31;52070;53.760;9.678;2022-12-10T04:57:16;-0.10;84.61
65374;SHT31;52070;53.760;9.678;2022-12-10T04:59:43;-0.10;85.06
65374;SHT31;52070;53.760;9.678;2022-12-10T05:02:10;-0.09;85.24
65374;SHT31;52070;53.760;9.678;2022-12-10T05:04:37;-0.06;85.51
65374;SHT31;52070;53.760;9.678;2022-12-10T05:07:04;-0.10;85.78
65374;SHT31;52070;53.760;9.678;2022-12-10T05:09:31;-0.06;85.78
65374;SHT31;52070;53.760;9.678;2022-12-10T05:11:59;-0.09;85.98
65374;SHT31;52070;53.760;9.678;2022-12-10T05:14:26;-0.06;86.16
65374;SHT31;52070;53.760;9.678;2022-12-10T05:16:53;-0.06;86.40
65374;SHT31;52070;53.760;9.678;2022-12-10T05:19:20;-0.06;86.30
65374;SHT31;52070;53.760;9.678;2022-12-10T05:21:49;-0.07;86.03
65374;SHT31;52070;53.760;9.678;2022-12-10T05:24:34;-0.06;85.45
65374;SHT31;52070;53.760;9.678;2022-12-10T05:27:02;0.01;85.34
65374;SHT31;52070;53.760;9.678;2022-12-10T05:29:29;-0.02;85.48
65374;SHT31;52070;53.760;9.678;2022-12-10T05:31:56;-0.02;85.89
65374;SHT31;52070;53.760;9.678;2022-12-10T05:34:23;-0.03;86.17
65374;SHT31;52070;53.760;9.678;2022-12-10T05:36:50;-0.02;86.32
65374;SHT31;52070;53.760;9.678;2022-12-10T05:39:17;-0.05;86.58
65374;SHT31;52070;53.760;9.678;2022-12-10T05:41:44;-0.07;86.59
65374;SHT31;52070;53.760;9.678;2022-12-10T05:44:13;-0.07;86.78
65374;SHT31;52070;53.760;9.678;2022-12-10T05:46:40;0.05;85.76
65374;SHT31;52070;53.760;9.678;2022-12-10T05:49:07;0.02;85.22
65374;SHT31;52070;53.760;9.678;2022-12-10T05:51:36;-0.06;84.24
65374;SHT31;52070;53.760;9.678;2022-12-10T05:54:05;-0.10;84.25
65374;SHT31;52070;53.760;9.678;2022-12-10T05:56:35;-0.10;84.37
65374;SHT31;52070;53.760;9.678;2022-12-10T05:59:03;-0.12;84.89
65374;SHT31;52070;53.760;9.678;2022-12-10T06:01:33;-0.12;85.36
65374;SHT31;52070;53.760;9.678;2022-12-10T06:04:03;-0.09;85.97
65374;SHT31;52070;53.760;9.678;2022-12-10T06:06:31;-0.09;86.31
65374;SHT31;52070;53.760;9.678;2022-12-10T06:08:59;-0.12;86.44
65374;SHT31;52070;53.760;9.678;2022-12-10T06:11:27;-0.10;86.65
65374;SHT31;52070;53.760;9.678;2022-12-10T06:13:54;-0.09;86.65
65374;SHT31;52070;53.760;9.678;2022-12-10T06:16:22;-0.02;86.52
65374;SHT31;52070;53.760;9.678;2022-12-10T06:18:50;0.17;83.56
65374;SHT31;52070;53.760;9.678;2022-12-10T06:21:18;0.04;83.91
65374;SHT31;52070;53.760;9.678;2022-12-10T06:23:47;-0.02;84.27
65374;SHT31;52070;53.760;9.678;2022-12-10T06:26:15;-0.07;84.71
65374;SHT31;52070;53.760;9.678;2022-12-10T06:28:44;-0.09;85.33
65374;SHT31;52070;53.760;9.678;2022-12-10T06:31:11;-0.09;85.84
65374;SHT31;52070;53.760;9.678;2022-12-10T06:33:38;-0.07;86.05
65374;SHT31;52070;53.760;9.678;2022-12-10T06:36:08;-0.05;86.19
65374;SHT31;52070;53.760;9.678;2022-12-10T06:38:37;-0.07;86.21
65374;SHT31;52070;53.760;9.678;2022-12-10T06:41:05;-0.07;86.51
65374;SHT31;52070;53.760;9.678;2022-12-10T06:43:33;-0.03;86.02
65374;SHT31;52070;53.760;9.678;2022-12-10T06:46:04;-0.07;85.83
65374;SHT31;52070;53.760;9.678;2022-12-10T06:48:31;-0.01;85.82
65374;SHT31;52070;53.760;9.678;2022-12-10T06:50:58;-0.05;85.55
65374;SHT31;52070;53.760;9.678;2022-12-10T06:53:26;-0.03;85.75
65374;SHT31;52070;53.760;9.678;2022-12-10T06:55:53;-0.10;85.99
65374;SHT31;52070;53.760;9.678;2022-12-10T06:58:20;-0.09;86.00
65374;SHT31;52070;53.760;9.678;2022-12-10T07:00:47;-0.03;85.66
65374;SHT31;52070;53.760;9.678;2022-12-10T07:03:14;-0.06;85.49
65374;SHT31;52070;53.760;9.678;2022-12-10T07:05:41;0.02;85.52
65374;SHT31;52070;53.760;9.678;2022-12-10T07:08:08;-0.02;84.73
65374;SHT31;52070;53.760;9.678;2022-12-10T07:10:37;-0.01;85.11
65374;SHT31;52070;53.760;9.678;2022-12-10T07:13:04;0.02;85.11
65374;SHT31;52070;53.760;9.678;2022-12-10T07:15:31;-0.01;85.29
65374;SHT31;52070;53.760;9.678;2022-12-10T07:17:58;0.02;84.93
65374;SHT31;52070;53.760;9.678;2022-12-10T07:20:25;-0.03;85.25
65374;SHT31;52070;53.760;9.678;2022-12-10T07:22:52;0.08;85.22
65374;SHT31;52070;53.760;9.678;2022-12-10T07:25:19;0.08;84.17
65374;SHT31;52070;53.760;9.678;2022-12-10T07:27:47;0.05;84.47
65374;SHT31;52070;53.760;9.678;2022-12-10T07:30:14;0.01;84.79
65374;SHT31;52070;53.760;9.678;2022-12-10T07:32:41;-0.03;85.49
65374;SHT31;52070;53.760;9.678;2022-12-10T07:35:08;-0.07;85.91
65374;SHT31;52070;53.760;9.678;2022-12-10T07:37:35;-0.02;85.72
65374;SHT31;52070;53.760;9.678;2022-12-10T07:40:03;-0.02;85.85
65374;SHT31;52070;53.760;9.678;2022-12-10T07:42:30;-0.06;86.07
65374;SHT31;52070;53.760;9.678;2022-12-10T07:44:58;-0.07;86.34
65374;SHT31;52070;53.760;9.678;2022-12-10T07:47:25;-0.07;86.55
65374;SHT31;52070;53.760;9.678;2022-12-10T07:49:53;-0.07;86.75
65374;SHT31;52070;53.760;9.678;2022-12-10T07:52:19;-0.07;86.50
65374;SHT31;52070;53.760;9.678;2022-12-10T07:54:46;-0.03;86.28
65374;SHT31;52070;53.760;9.678;2022-12-10T07:57:13;0.04;85.62
65374;SHT31;52070;53.760;9.678;2022-12-10T07:59:41;0.02;85.74
65374;SHT31;52070;53.760;9.678;2022-12-10T08:02:09;-0.01;86.01
65374;SHT31;52070;53.760;9.678;2022-12-10T08:04:36;-0.03;86.37
65374;SHT31;52070;53.760;9.678;2022-12-10T08:07:04;-0.05;86.65
65374;SHT31;52070;53.760;9.678;2022-12-10T08:09:31;-0.02;86.75
65374;SHT31;52070;53.760;9.678;2022-12-10T08:11:58;-0.06;86.66
65374;SHT31;52070;53.760;9.678;2022-12-10T08:14:25;-0.05;86.67
65374;SHT31;52070;53.760;9.678;2022-12-10T08:16:52;-0.06;86.71
65374;SHT31;52070;53.760;9.678;2022-12-10T08:19:20;-0.03;86.62
65374;SHT31;52070;53.760;9.678;2022-12-10T08:21:47;0.02;85.46
65374;SHT31;52070;53.760;9.678;2022-12-10T08:24:14;-0.02;85.43
65374;SHT31;52070;53.760;9.678;2022-12-10T08:26:41;-0.03;85.72
65374;SHT31;52070;53.760;9.678;2022-12-10T08:29:08;-0.06;86.18
65374;SHT31;52070;53.760;9.678;2022-12-10T08:31:34;-0.06;86.45
65374;SHT31;52070;53.760;9.678;2022-12-10T08:34:01;0.01;86.33
65374;SHT31;52070;53.760;9.678;2022-12-10T08:36:31;-0.02;86.09
65374;SHT31;52070;53.760;9.678;2022-12-10T08:38:58;-0.02;86.36
65374;SHT31;52070;53.760;9.678;2022-12-10T08:41:25;-0.06;86.50
65374;SHT31;52070;53.760;9.678;2022-12-10T08:43:52;-0.06;86.62
65374;SHT31;52070;53.760;9.678;2022-12-10T08:46:20;-0.06;86.86
65374;SHT31;52070;53.760;9.678;2022-12-10T08:48:48;-0.07;87.12
65374;SHT31;52070;53.760;9.678;2022-12-10T08:51:17;-0.07;87.25
65374;SHT31;52070;53.760;9.678;2022-12-10T08:53:46;-0.10;87.30
65374;SHT31;52070;53.760;9.678;2022-12-10T08:56:13;-0.05;87.47
65374;SHT31;52070;53.760;9.678;2022-12-10T08:58:40;-0.03;87.60
65374;SHT31;52070;53.760;9.678;2022-12-10T09:01:08;-0.06;87.72
65374;SHT31;52070;53.760;9.678;2022-12-10T09:03:35;-0.03;87.72
65374;SHT31;52070;53.760;9.678;2022-12-10T09:06:04;-0.03;87.78
65374;SHT31;52070;53.760;9.678;2022-12-10T09:08:31;-0.01;87.87
65374;SHT31;52070;53.760;9.678;2022-12-10T09:11:04;-0.07;87.93
65374;SHT31;52070;53.760;9.678;2022-12-10T09:13:31;-0.01;88.09
65374;SHT31;52070;53.760;9.678;2022-12-10T09:15:58;-0.01;88.17
65374;SHT31;52070;53.760;9.678;2022-12-10T09:18:24;-0.06;88.10
65374;SHT31;52070;53.760;9.678;2022-12-10T09:20:51;-0.06;88.22
65374;SHT31;52070;53.760;9.678;2022-12-10T09:23:18;-0.02;88.41
65374;SHT31;52070;53.760;9.678;2022-12-10T09:25:45;-0.07;88.53
65374;SHT31;52070;53.760;9.678;2022-12-10T09:28:13;-0.09;88.62
65374;SHT31;52070;53.760;9.678;2022-12-10T09:30:41;-0.07;88.73
65374;SHT31;52070;53.760;9.678;2022-12-10T09:33:08;-0.09;88.88
65374;SHT31;52070;53.760;9.678;2022-12-10T09:35:39;-0.07;88.92
65374;SHT31;52070;53.760;9.678;2022-12-10T09:38:06;-0.13;88.99
65374;SHT31;52070;53.760;9.678;2022-12-10T09:40:39;-0.13;89.06
65374;SHT31;52070;53.760;9.678;2022-12-10T09:43:16;-0.15;89.21
65374;SHT31;52070;53.760;9.678;2022-12-10T09:45:53;-0.12;89.37
65374;SHT31;52070;53.760;9.678;2022-12-10T09:48:30;-0.12;89.43
65374;SHT31;52070;53.760;9.678;2022-12-10T09:51:05;-0.13;89.46
65374;SHT31;52070;53.760;9.678;2022-12-10T09:53:33;-0.15;89.66
65374;SHT31;52070;53.760;9.678;2022-12-10T09:56:03;-0.19;89.61
65374;SHT31;52070;53.760;9.678;2022-12-10T09:58:39;-0.22;89.55
65374;SHT31;52070;53.760;9.678;2022-12-10T10:01:12;-0.19;89.66
65374;SHT31;52070;53.760;9.678;2022-12-10T10:03:41;-0.20;89.84
65374;SHT31;52070;53.760;9.678;2022-12-10T10:06:09;-0.17;89.82
65374;SHT31;52070;53.760;9.678;2022-12-10T10:08:41;-0.16;89.83
65374;SHT31;52070;53.760;9.678;2022-12-10T10:11:11;-0.19;89.81
65374;SHT31;52070;53.760;9.678;2022-12-10T10:13:42;-0.20;89.77
65374;SHT31;52070;53.760;9.678;2022-12-10T10:16:20;-0.22;89.68
65374;SHT31;52070;53.760;9.678;2022-12-10T10:18:52;-0.19;89.64
65374;SHT31;52070;53.760;9.678;2022-12-10T10:21:22;-0.24;89.71
65374;SHT31;52070;53.760;9.678;2022-12-10T10:23:49;-0.24;89.77
65374;SHT31;52070;53.760;9.678;2022-12-10T10:26:17;-0.24;89.91
65374;SHT31;52070;53.760;9.678;2022-12-10T10:28:46;-0.30;89.94
65374;SHT31;52070;53.760;9.678;2022-12-10T10:31:18;-0.26;90.00
65374;SHT31;52070;53.760;9.678;2022-12-10T10:33:50;-0.24;90.04
65374;SHT31;52070;53.760;9.678;2022-12-10T10:36:26;-0.24;90.00
65374;SHT31;52070;53.760;9.678;2022-12-10T10:38:54;-0.23;89.99
65374;SHT31;52070;53.760;9.678;2022-12-10T10:41:23;-0.27;89.82
65374;SHT31;52070;53.760;9.678;2022-12-10T10:43:59;-0.29;89.73
65374;SHT31;52070;53.760;9.678;2022-12-10T10:46:27;-0.30;89.71
65374;SHT31;52070;53.760;9.678;2022-12-10T10:49:19;-0.32;89.84
65374;SHT31;52070;53.760;9.678;2022-12-10T10:51:46;-0.30;89.94
65374;SHT31;52070;53.760;9.678;2022-12-10T10:54:30;-0.32;89.97
65374;SHT31;52070;53.760;9.678;2022-12-10T10:56:58;-0.34;89.96
65374;SHT31;52070;53.760;9.678;2022-12-10T10:59:31;-0.36;89.88
65374;SHT31;52070;53.760;9.678;2022-12-10T11:02:02;-0.36;89.95
65374;SHT31;52070;53.760;9.678;2022-12-10T11:04:36;-0.34;89.83
65374;SHT31;52070;53.760;9.678;2022-12-10T11:07:05;-0.26;89.79
65374;SHT31;52070;53.760;9.678;2022-12-10T11:09:33;-0.27;89.63
65374;SHT31;52070;53.760;9.678;2022-12-10T11:12:03;-0.32;89.60
65374;SHT31;52070;53.760;9.678;2022-12-10T11:14:35;-0.23;89.52
65374;SHT31;52070;53.760;9.678;2022-12-10T11:17:17;-0.24;89.41
65374;SHT31;52070;53.760;9.678;2022-12-10T11:19:54;-0.22;89.56
65374;SHT31;52070;53.760;9.678;2022-12-10T11:22:23;-0.23;89.59
65374;SHT31;52070;53.760;9.678;2022-12-10T11:24:50;-0.23;89.61
65374;SHT31;52070;53.760;9.678;2022-12-10T11:27:28;-0.26;89.72
65374;SHT31;52070;53.760;9.678;2022-12-10T11:30:02;-0.26;89.84
65374;SHT31;52070;53.760;9.678;2022-12-10T11:32:45;-0.24;89.90
65374;SHT31;52070;53.760;9.678;2022-12-10T11:35:17;-0.22;89.97
65374;SHT31;52070;53.760;9.678;2022-12-10T11:37:50;-0.20;89.76
65374;SHT31;52070;53.760;9.678;2022-12-10T11:40:30;-0.22;89.66
65374;SHT31;52070;53.760;9.678;2022-12-10T11:45:59;-0.19;89.76
65374;SHT31;52070;53.760;9.678;2022-12-10T11:48:39;-0.20;89.62
65374;SHT31;52070;53.760;9.678;2022-12-10T11:51:10;-0.19;89.61
65374;SHT31;52070;53.760;9.678;2022-12-10T11:53:50;-0.20;89.56
65374;SHT31;52070;53.760;9.678;2022-12-10T11:56:23;-0.23;89.49
65374;SHT31;52070;53.760;9.678;2022-12-10T11:58:57;-0.22;89.44
65374;SHT31;52070;53.760;9.678;2022-12-10T12:01:34;-0.22;89.07
65374;SHT31;52070;53.760;9.678;2022-12-10T12:04:24;-0.26;89.03
65374;SHT31;52070;53.760;9.678;2022-12-10T12:07:05;-0.29;89.00
65374;SHT31;52070;53.760;9.678;2022-12-10T12:09:39;-0.29;88.94
65374;SHT31;52070;53.760;9.678;2022-12-10T12:12:17;-0.33;88.82
65374;SHT31;52070;53.760;9.678;2022-12-10T12:14:50;-0.33;88.71
65374;SHT31;52070;53.760;9.678;2022-12-10T12:17:23;-0.36;88.76
65374;SHT31;52070;53.760;9.678;2022-12-10T12:19:53;-0.36;88.89
65374;SHT31;52070;53.760;9.678;2022-12-10T12:22:23;-0.37;88.73
65374;SHT31;52070;53.760;9.678;2022-12-10T12:24:54;-0.37;88.50
65374;SHT31;52070;53.760;9.678;2022-12-10T12:27:26;-0.38;88.63
65374;SHT31;52070;53.760;9.678;2022-12-10T12:30:02;-0.34;88.80
65374;SHT31;52070;53.760;9.678;2022-12-10T12:32:48;-0.33;88.87
65374;SHT31;52070;53.760;9.678;2022-12-10T12:35:18;-0.33;88.94
65374;SHT31;52070;53.760;9.678;2022-12-10T12:37:50;-0.33;89.02
65374;SHT31;52070;53.760;9.678;2022-12-10T12:40:25;-0.36;88.99
65374;SHT31;52070;53.760;9.678;2022-12-10T12:42:57;-0.30;89.10
65374;SHT31;52070;53.760;9.678;2022-12-10T12:45:31;-0.33;89.03
65374;SHT31;52070;53.760;9.678;2022-12-10T12:48:10;-0.33;88.61
65374;SHT31;52070;53.760;9.678;2022-12-10T12:50:43;-0.32;88.63
65374;SHT31;52070;53.760;9.678;2022-12-10T12:53:13;-0.33;88.70
65374;SHT31;52070;53.760;9.678;2022-12-10T12:55:50;-0.34;88.76
65374;SHT31;52070;53.760;9.678;2022-12-10T12:58:24;-0.34;88.76
65374;SHT31;52070;53.760;9.678;2022-12-10T13:00:57;-0.33;88.84
65374;SHT31;52070;53.760;9.678;2022-12-10T13:03:33;-0.36;88.85
65374;SHT31;52070;53.760;9.678;2022-12-10T13:06:19;-0.36;88.79
65374;SHT31;52070;53.760;9.678;2022-12-10T13:08:50;-0.36;88.67
65374;SHT31;52070;53.760;9.678;2022-12-10T13:11:30;-0.38;88.51
65374;SHT31;52070;53.760;9.678;2022-12-10T13:14:16;-0.32;88.42
65374;SHT31;52070;53.760;9.678;2022-12-10T13:16:49;-0.38;88.24
65374;SHT31;52070;53.760;9.678;2022-12-10T13:19:27;-0.41;88.21
65374;SHT31;52070;53.760;9.678;2022-12-10T13:22:08;-0.40;88.25
65374;SHT31;52070;53.760;9.678;2022-12-10T13:27:30;-0.37;87.89
65374;SHT31;52070;53.760;9.678;2022-12-10T13:30:03;-0.38;87.74
65374;SHT31;52070;53.760;9.678;2022-12-10T13:32:45;-0.30;87.28
65374;SHT31;52070;53.760;9.678;2022-12-10T13:35:26;-0.30;85.93
65374;SHT31;52070;53.760;9.678;2022-12-10T13:37:56;-0.40;86.16
65374;SHT31;52070;53.760;9.678;2022-12-10T13:40:25;-0.44;86.18
65374;SHT31;52070;53.760;9.678;2022-12-10T13:42:57;-0.47;86.49
65374;SHT31;52070;53.760;9.678;2022-12-10T13:45:42;-0.50;86.44
65374;SHT31;52070;53.760;9.678;2022-12-10T13:48:30;-0.52;86.75
65374;SHT31;52070;53.760;9.678;2022-12-10T13:51:08;-0.46;86.54
65374;SHT31;52070;53.760;9.678;2022-12-10T13:53:46;-0.54;86.12
65374;SHT31;52070;53.760;9.678;2022-12-10T13:56:21;-0.56;86.51
65374;SHT31;52070;53.760;9.678;2022-12-10T13:58:58;-0.56;86.86
65374;SHT31;52070;53.760;9.678;2022-12-10T14:01:36;-0.54;86.90
65374;SHT31;52070;53.760;9.678;2022-12-10T14:04:21;-0.57;86.19
65374;SHT31;52070;53.760;9.678;2022-12-10T14:06:54;-0.49;83.83
65374;SHT31;52070;53.760;9.678;2022-12-10T14:09:23;-0.58;84.20
65374;SHT31;52070;53.760;9.678;2022-12-10T14:11:54;-0.60;84.60
65374;SHT31;52070;53.760;9.678;2022-12-10T14:14:26;-0.60;85.03
65374;SHT31;52070;53.760;9.678;2022-12-10T14:16:59;-0.53;85.29
65374;SHT31;52070;53.760;9.678;2022-12-10T14:19:28;-0.53;85.18
65374;SHT31;52070;53.760;9.678;2022-12-10T14:21:57;-0.61;85.14
65374;SHT31;52070;53.760;9.678;2022-12-10T14:24:26;-0.63;85.51
65374;SHT31;52070;53.760;9.678;2022-12-10T14:26:57;-0.60;85.57
65374;SHT31;52070;53.760;9.678;2022-12-10T14:29:24;-0.67;85.24
65374;SHT31;52070;53.760;9.678;2022-12-10T14:31:51;-0.70;85.45
65374;SHT31;52070;53.760;9.678;2022-12-10T14:34:23;-0.71;85.68
65374;SHT31;52070;53.760;9.678;2022-12-10T14:36:52;-0.71;85.83
65374;SHT31;52070;53.760;9.678;2022-12-10T14:39:25;-0.68;86.12
65374;SHT31;52070;53.760;9.678;2022-12-10T14:41:56;-0.68;86.35
65374;SHT31;52070;53.760;9.678;2022-12-10T14:44:23;-0.66;86.51
65374;SHT31;52070;53.760;9.678;2022-12-10T14:46:51;-0.64;86.55
65374;SHT31;52070;53.760;9.678;2022-12-10T14:49:20;-0.66;86.48
65374;SHT31;52070;53.760;9.678;2022-12-10T14:51:48;-0.70;86.63
65374;SHT31;52070;53.760;9.678;2022-12-10T14:54:30;-0.70;86.79
65374;SHT31;52070;53.760;9.678;2022-12-10T14:57:01;-0.67;86.15
65374;SHT31;52070;53.760;9.678;2022-12-10T14:59:31;-0.68;85.49
65374;SHT31;52070;53.760;9.678;2022-12-10T15:02:01;-0.71;85.22
65374;SHT31;52070;53.760;9.678;2022-12-10T15:04:40;-0.73;85.22
65374;SHT31;52070;53.760;9.678;2022-12-10T15:07:11;-0.77;85.45
65374;SHT31;52070;53.760;9.678;2022-12-10T15:09:41;-0.77;85.70
65374;SHT31;52070;53.760;9.678;2022-12-10T15:12:20;-0.76;85.79
65374;SHT31;52070;53.760;9.678;2022-12-10T15:14:48;-0.76;85.69
65374;SHT31;52070;53.760;9.678;2022-12-10T15:17:34;-0.85;84.73
65374;SHT31;52070;53.760;9.678;2022-12-10T15:20:03;-0.87;85.07
65374;SHT31;52070;53.760;9.678;2022-12-10T15:22:31;-0.88;85.26
65374;SHT31;52070;53.760;9.678;2022-12-10T15:25:14;-0.91;84.87
65374;SHT31;52070;53.760;9.678;2022-12-10T15:27:52;-0.91;84.82
65374;SHT31;52070;53.760;9.678;2022-12-10T15:30:24;-0.84;85.09
65374;SHT31;52070;53.760;9.678;2022-12-10T15:32:52;-0.85;85.07
65374;SHT31;52070;53.760;9.678;2022-12-10T15:35:19;-0.76;85.11
65374;SHT31;52070;53.760;9.678;2022-12-10T15:37:48;-0.74;84.82
65374;SHT31;52070;53.760;9.678;2022-12-10T15:40:27;-0.77;84.92
65374;SHT31;52070;53.760;9.678;2022-12-10T15:42:56;-0.78;85.36
65374;SHT31;52070;53.760;9.678;2022-12-10T15:45:37;-0.77;85.62
65374;SHT31;52070;53.760;9.678;2022-12-10T15:48:08;-0.80;85.76
65374;SHT31;52070;53.760;9.678;2022-12-10T15:50:36;-0.81;85.53
65374;SHT31;52070;53.760;9.678;2022-12-10T15:53:03;-0.80;85.55
65374;SHT31;52070;53.760;9.678;2022-12-10T15:55:31;-0.85;85.35
65374;SHT31;52070;53.760;9.678;2022-12-10T15:57:58;-0.84;84.47
65374;SHT31;52070;53.760;9.678;2022-12-10T16:00:26;-0.88;84.70